createdAt,value
2022-10-13T00:00:51.269Z,122.55
2022-10-13T00:03:18.796Z,83.00
2022-10-13T00:05:48.291Z,111.32
2022-10-13T00:08:18.596Z,48.35
2022-10-13T00:10:47.396Z,104.93
2022-10-13T00:13:15.026Z,73.22
2022-10-13T00:15:44.601Z,70.47
2022-10-13T00:18:12.004Z,104.38
2022-10-13T00:20:44.705Z,131.63
2022-10-13T00:23:12.102Z,61.17
2022-10-13T00:25:48.137Z,369.15
2022-10-13T00:28:17.459Z,190.68
2022-10-13T00:30:45.094Z,115.35
2022-10-13T00:33:13.159Z,417.20
2022-10-13T00:35:42.233Z,100.43
2022-10-13T00:38:11.944Z,207.43
2022-10-13T00:40:49.474Z,75.18
2022-10-13T00:43:19.240Z,72.30
2022-10-13T00:45:47.446Z,96.28
2022-10-13T00:48:14.585Z,63.75
2022-10-13T00:50:42.201Z,81.53
2022-10-13T00:53:11.075Z,128.48
2022-10-13T00:55:39.780Z,272.80
2022-10-13T00:58:09.609Z,195.32
2022-10-13T01:00:36.762Z,76.82
2022-10-13T01:03:03.993Z,102.03
2022-10-13T01:05:31.125Z,103.97
2022-10-13T01:07:59.531Z,289.40
2022-10-13T01:10:33.359Z,361.42
2022-10-13T01:13:09.382Z,199.15
2022-10-13T01:15:56.193Z,126.85
2022-10-13T01:18:42.037Z,169.95
2022-10-13T01:21:33.514Z,119.53
2022-10-13T01:24:22.328Z,73.38
2022-10-13T01:27:08.285Z,238.55
2022-10-13T01:30:02.454Z,290.20
2022-10-13T01:32:38.521Z,223.15
2022-10-13T01:35:13.562Z,247.88
2022-10-13T01:38:09.113Z,231.45
2022-10-13T01:40:42.558Z,100.32
2022-10-13T01:43:26.076Z,74.78
2022-10-13T01:45:58.684Z,66.03
2022-10-13T01:48:27.745Z,206.65
2022-10-13T01:50:57.455Z,55.97
2022-10-13T01:53:25.224Z,73.32
2022-10-13T01:55:56.903Z,56.25
2022-10-13T01:58:26.661Z,31.40
2022-10-13T02:01:27.287Z,31.10
2022-10-13T02:04:06.363Z,46.88
2022-10-13T02:06:45.658Z,32.88
2022-10-13T02:09:28.850Z,38.08
2022-10-13T02:12:02.374Z,55.45
2022-10-13T02:14:38.125Z,96.78
2022-10-13T02:17:05.914Z,34.40
2022-10-13T02:19:37.717Z,91.70
2022-10-13T02:22:06.784Z,250.73
2022-10-13T02:24:34.018Z,134.10
2022-10-13T02:27:01.549Z,121.60
2022-10-13T02:29:28.705Z,182.82
2022-10-13T02:31:55.873Z,275.50
2022-10-13T02:34:23.055Z,207.07
2022-10-13T02:36:50.223Z,226.85
2022-10-13T02:39:17.440Z,208.07
2022-10-13T02:41:44.660Z,444.02
2022-10-13T02:44:11.803Z,103.50
2022-10-13T02:46:41.911Z,263.38
2022-10-13T02:49:10.460Z,327.65
2022-10-13T02:51:40.156Z,264.38
2022-10-13T02:54:08.296Z,142.05
2022-10-13T02:56:35.519Z,247.48
2022-10-13T02:59:02.787Z,332.27
2022-10-13T03:01:29.989Z,258.42
2022-10-13T03:03:57.185Z,56.40
2022-10-13T03:06:24.698Z,119.65
2022-10-13T03:08:51.816Z,162.90
2022-10-13T03:11:19.009Z,210.00
2022-10-13T03:13:46.588Z,83.10
2022-10-13T03:16:13.826Z,175.05
2022-10-13T03:18:40.966Z,193.50
2022-10-13T03:21:10.622Z,211.82
2022-10-13T03:23:39.799Z,192.52
2022-10-13T03:26:07.040Z,132.90
2022-10-13T03:28:34.218Z,104.25
2022-10-13T03:31:07.198Z,241.43
2022-10-13T03:33:34.963Z,325.40
2022-10-13T03:36:04.071Z,93.47
2022-10-13T03:38:33.302Z,87.13
2022-10-13T03:41:16.659Z,87.65
2022-10-13T03:43:47.127Z,77.78
2022-10-13T03:46:16.204Z,83.63
2022-10-13T03:48:43.923Z,118.35
2022-10-13T03:51:14.418Z,176.07
2022-10-13T03:53:46.215Z,77.00
2022-10-13T03:56:19.635Z,42.47
2022-10-13T03:58:57.339Z,77.65
2022-10-13T04:03:53.694Z,118.28
2022-10-13T04:06:21.251Z,31.33
2022-10-13T04:08:48.707Z,222.07
2022-10-13T04:11:16.408Z,77.28
2022-10-13T04:13:45.265Z,212.77
2022-10-13T04:16:15.799Z,113.75
2022-10-13T04:18:44.894Z,93.05
2022-10-13T04:21:14.483Z,152.13
2022-10-13T04:23:42.263Z,111.70
2022-10-13T04:26:16.860Z,222.23
2022-10-13T04:28:45.491Z,74.75
2022-10-13T04:31:12.811Z,53.25
2022-10-13T04:33:40.015Z,51.53
2022-10-13T04:36:09.051Z,53.28
2022-10-13T04:38:36.268Z,224.25
2022-10-13T04:41:04.966Z,91.88
2022-10-13T04:43:33.234Z,201.30
2022-10-13T04:46:15.948Z,88.50
2022-10-13T04:48:43.249Z,57.13
2022-10-13T04:51:13.363Z,48.58
2022-10-13T04:53:41.020Z,62.15
2022-10-13T04:56:13.954Z,64.15
2022-10-13T04:58:42.540Z,50.25
2022-10-13T05:01:18.858Z,58.67
2022-10-13T05:03:51.569Z,34.85
2022-10-13T05:06:26.973Z,73.47
2022-10-13T05:08:57.835Z,83.25
2022-10-13T05:11:26.534Z,27.38
2022-10-13T05:13:54.420Z,40.65
2022-10-13T05:16:22.648Z,46.15
2022-10-13T05:18:51.292Z,66.85
2022-10-13T05:21:21.405Z,71.82
2022-10-13T05:23:49.040Z,23.80
2022-10-13T05:26:17.965Z,78.68
2022-10-13T05:28:45.544Z,73.88
2022-10-13T05:31:16.840Z,94.72
2022-10-13T05:33:45.105Z,132.93
2022-10-13T05:36:15.666Z,130.65
2022-10-13T05:38:43.299Z,84.05
2022-10-13T05:41:12.853Z,52.25
2022-10-13T05:43:41.657Z,62.00
2022-10-13T05:46:09.182Z,41.63
2022-10-13T05:48:37.620Z,43.85
2022-10-13T05:51:18.677Z,35.60
2022-10-13T05:53:56.812Z,35.00
2022-10-13T05:56:30.252Z,44.97
2022-10-13T05:59:02.668Z,47.72
2022-10-13T06:01:32.738Z,41.28
2022-10-13T06:04:06.483Z,46.92
2022-10-13T06:06:33.952Z,44.15
2022-10-13T06:09:01.355Z,47.20
2022-10-13T06:11:28.514Z,41.63
2022-10-13T06:13:55.668Z,37.15
2022-10-13T06:16:22.781Z,45.60
2022-10-13T06:18:49.946Z,34.53
2022-10-13T06:21:17.140Z,41.70
2022-10-13T06:23:44.532Z,45.45
2022-10-13T06:26:11.899Z,48.00
2022-10-13T06:28:39.143Z,48.97
2022-10-13T06:31:06.667Z,51.38
2022-10-13T06:33:34.630Z,48.03
2022-10-13T06:36:05.837Z,67.05
2022-10-13T06:38:33.836Z,97.47
2022-10-13T06:41:03.061Z,87.25
2022-10-13T06:43:38.894Z,96.57
2022-10-13T06:46:10.696Z,81.00
2022-10-13T06:48:38.195Z,61.00
2022-10-13T06:51:10.806Z,72.07
2022-10-13T06:53:38.248Z,57.38
2022-10-13T06:56:08.072Z,49.58
2022-10-13T06:58:36.287Z,65.03
2022-10-13T07:01:04.511Z,74.53
2022-10-13T07:03:32.124Z,116.35
2022-10-13T07:06:03.678Z,97.13
2022-10-13T07:08:32.174Z,120.95
2022-10-13T07:10:59.513Z,129.88
2022-10-13T07:13:26.667Z,113.68
2022-10-13T07:15:53.809Z,137.27
2022-10-13T07:18:20.949Z,168.65
2022-10-13T07:20:48.094Z,129.77
2022-10-13T07:23:15.239Z,265.30
2022-10-13T07:25:42.393Z,122.63
2022-10-13T07:28:09.582Z,150.63
2022-10-13T07:30:39.460Z,147.65
2022-10-13T07:33:06.752Z,61.15
2022-10-13T07:35:34.367Z,72.80
2022-10-13T07:38:01.615Z,56.05
2022-10-13T07:40:29.086Z,65.65
2022-10-13T07:42:57.327Z,122.30
2022-10-13T07:45:25.132Z,69.35
2022-10-13T07:47:52.344Z,66.15
2022-10-13T07:50:20.269Z,54.13
2022-10-13T07:52:47.680Z,52.17
2022-10-13T07:55:14.859Z,52.28
2022-10-13T07:57:42.011Z,54.90
2022-10-13T08:00:09.877Z,57.10
2022-10-13T08:02:39.774Z,57.72
2022-10-13T08:05:07.739Z,56.08
2022-10-13T08:07:34.926Z,56.35
2022-10-13T08:10:02.367Z,44.60
2022-10-13T08:12:29.646Z,69.50
2022-10-13T08:14:58.479Z,55.67
2022-10-13T08:17:27.789Z,56.30
2022-10-13T08:19:54.927Z,45.85
2022-10-13T08:22:28.322Z,37.25
2022-10-13T08:24:55.762Z,31.80
2022-10-13T08:27:37.072Z,30.02
2022-10-13T08:30:12.648Z,44.38
2022-10-13T08:32:39.807Z,41.40
2022-10-13T08:35:07.347Z,41.45
2022-10-13T08:37:34.490Z,31.65
2022-10-13T08:40:01.952Z,34.75
2022-10-13T08:42:29.468Z,32.70
2022-10-13T08:45:39.393Z,31.75
2022-10-13T08:48:13.877Z,29.65
2022-10-13T08:50:44.296Z,34.80
2022-10-13T08:53:18.726Z,27.67
2022-10-13T08:55:52.799Z,28.02
2022-10-13T08:58:27.004Z,33.05
2022-10-13T09:01:08.756Z,27.80
2022-10-13T09:04:06.660Z,27.85
2022-10-13T09:06:41.581Z,28.05
2022-10-13T09:09:13.200Z,26.67
2022-10-13T09:11:46.452Z,24.73
2022-10-13T09:14:29.332Z,23.95
2022-10-13T09:17:12.886Z,27.70
2022-10-13T09:19:40.121Z,26.38
2022-10-13T09:22:15.554Z,25.60
2022-10-13T09:24:42.718Z,26.85
2022-10-13T09:27:16.186Z,28.27
2022-10-13T09:29:45.288Z,27.30
2022-10-13T09:32:20.175Z,29.02
2022-10-13T09:34:48.395Z,25.95
2022-10-13T09:37:24.691Z,24.27
2022-10-13T09:40:13.257Z,23.52
2022-10-13T09:42:40.813Z,22.67
2022-10-13T09:45:16.608Z,28.80
2022-10-13T09:47:56.058Z,23.75
2022-10-13T09:50:27.032Z,28.20
2022-10-13T09:53:12.015Z,28.38
2022-10-13T09:55:39.292Z,23.40
2022-10-13T09:58:13.829Z,25.90
2022-10-13T10:00:41.967Z,24.98
2022-10-13T10:03:20.784Z,25.50
2022-10-13T10:05:53.915Z,25.77
2022-10-13T10:08:57.961Z,28.98
2022-10-13T10:11:41.543Z,25.08
2022-10-13T10:14:37.150Z,20.58
2022-10-13T10:17:35.189Z,22.30
2022-10-13T10:20:24.152Z,23.90
2022-10-13T10:23:01.293Z,23.65
2022-10-13T10:25:34.448Z,25.48
2022-10-13T10:28:20.548Z,23.08
2022-10-13T10:30:59.041Z,27.02
2022-10-13T10:33:58.923Z,23.30
2022-10-13T10:36:45.212Z,20.15
2022-10-13T10:39:18.346Z,22.52
2022-10-13T10:41:57.887Z,25.92
2022-10-13T10:44:33.074Z,21.58
2022-10-13T10:47:32.367Z,25.67
2022-10-13T10:50:05.958Z,21.55
2022-10-13T10:52:41.529Z,17.02
2022-10-13T10:55:20.703Z,22.30
2022-10-13T10:57:59.676Z,21.55
2022-10-13T11:03:10.529Z,24.60
2022-10-13T11:06:00.975Z,21.63
2022-10-13T11:08:39.202Z,25.33
2022-10-13T11:11:25.188Z,27.10
2022-10-13T11:14:07.717Z,24.67
2022-10-13T11:16:53.545Z,26.10
2022-10-13T11:19:37.188Z,20.73
2022-10-13T11:22:04.316Z,24.40
2022-10-13T11:24:34.881Z,23.90
2022-10-13T11:27:48.521Z,27.75
2022-10-13T11:30:42.008Z,27.27
2022-10-13T11:33:30.826Z,21.13
2022-10-13T11:35:57.999Z,23.90
2022-10-13T11:38:37.400Z,27.35
2022-10-13T11:41:14.178Z,24.13
2022-10-13T11:43:56.608Z,25.42
2022-10-13T11:46:55.823Z,24.95
2022-10-13T11:49:35.767Z,32.13
2022-10-13T11:52:15.001Z,28.23
2022-10-13T11:54:54.291Z,27.67
2022-10-13T11:57:24.005Z,24.27
2022-10-13T11:59:54.014Z,25.02
2022-10-13T12:02:27.693Z,30.38
2022-10-13T12:05:07.423Z,26.00
2022-10-13T12:07:41.573Z,24.02
2022-10-13T12:10:20.487Z,27.10
2022-10-13T12:12:49.507Z,27.52
2022-10-13T12:15:37.163Z,27.00
2022-10-13T12:18:24.236Z,23.20
2022-10-13T12:20:56.436Z,25.50
2022-10-13T12:23:24.030Z,29.48
2022-10-13T12:25:52.911Z,26.48
2022-10-13T12:28:20.723Z,26.35
2022-10-13T12:30:53.028Z,27.13
2022-10-13T12:33:31.552Z,19.85
2022-10-13T12:36:21.029Z,22.67
2022-10-13T12:38:53.890Z,28.65
2022-10-13T12:41:36.186Z,26.25
2022-10-13T12:44:06.712Z,35.75
2022-10-13T12:46:37.083Z,30.58
2022-10-13T12:49:24.345Z,27.70
2022-10-13T12:52:24.102Z,22.25
2022-10-13T12:54:55.371Z,22.52
2022-10-13T12:57:36.194Z,25.20
2022-10-13T13:00:18.764Z,21.50
2022-10-13T13:02:54.567Z,19.92
2022-10-13T13:05:34.960Z,25.42
2022-10-13T13:08:22.201Z,23.98
2022-10-13T13:11:00.040Z,25.83
2022-10-13T13:13:28.083Z,23.52
2022-10-13T13:16:14.257Z,25.50
2022-10-13T13:18:44.240Z,21.58
2022-10-13T13:21:13.362Z,20.40
2022-10-13T13:23:51.025Z,20.08
2022-10-13T13:26:23.224Z,21.00
2022-10-13T13:28:55.768Z,21.77
2022-10-13T13:31:25.230Z,21.40
2022-10-13T13:33:52.575Z,16.98
2022-10-13T13:36:25.026Z,18.45
2022-10-13T13:38:53.887Z,17.52
2022-10-13T13:41:24.178Z,15.55
2022-10-13T13:43:51.262Z,17.63
2022-10-13T13:46:24.126Z,32.47
2022-10-13T13:48:51.999Z,29.92
2022-10-13T13:51:19.404Z,17.60
2022-10-13T13:53:46.508Z,20.23
2022-10-13T13:56:15.188Z,16.58
2022-10-13T13:58:44.048Z,17.65
2022-10-13T14:01:12.276Z,18.80
2022-10-13T14:03:39.327Z,16.10
2022-10-13T14:06:08.475Z,15.27
2022-10-13T14:08:36.582Z,17.88
2022-10-13T14:11:07.007Z,21.42
2022-10-13T14:13:34.306Z,16.17
2022-10-13T14:16:02.327Z,17.98
2022-10-13T14:18:30.392Z,17.27
2022-10-13T14:20:57.488Z,17.45
2022-10-13T14:23:24.484Z,15.88
2022-10-13T14:25:51.504Z,14.77
2022-10-13T14:28:20.856Z,17.45
2022-10-13T14:30:48.009Z,13.82
2022-10-13T14:33:15.032Z,15.77
2022-10-13T14:35:42.086Z,15.82
2022-10-13T14:38:10.089Z,15.93
2022-10-13T14:40:41.705Z,16.35
2022-10-13T14:43:08.770Z,15.73
2022-10-13T14:45:35.904Z,14.43
2022-10-13T14:48:03.445Z,13.55
2022-10-13T14:50:30.458Z,15.73
2022-10-13T14:52:57.480Z,15.38
2022-10-13T14:55:25.358Z,15.82
2022-10-13T14:57:52.307Z,15.98
2022-10-13T15:00:19.632Z,16.80
2022-10-13T15:02:46.666Z,15.00
2022-10-13T15:05:13.679Z,19.77
2022-10-13T15:07:41.418Z,22.35
2022-10-13T15:10:08.672Z,13.18
2022-10-13T15:12:35.755Z,16.80
2022-10-13T15:15:03.389Z,18.80
2022-10-13T15:17:31.387Z,15.73
2022-10-13T15:19:58.576Z,15.13
2022-10-13T15:22:25.620Z,13.18
2022-10-13T15:24:52.598Z,13.02
2022-10-13T15:27:19.578Z,13.05
2022-10-13T15:29:46.594Z,15.15
2022-10-13T15:32:15.820Z,11.23
2022-10-13T15:34:42.831Z,15.98
2022-10-13T15:37:12.871Z,12.93
2022-10-13T15:39:39.930Z,17.02
2022-10-13T15:42:07.116Z,12.48
2022-10-13T15:44:57.367Z,15.00
2022-10-13T15:47:21.125Z,13.52
2022-10-13T15:49:48.078Z,14.25
2022-10-13T15:52:15.135Z,16.38
2022-10-13T15:54:42.135Z,12.43
2022-10-13T15:57:09.095Z,11.27
2022-10-13T15:59:36.059Z,14.05
2022-10-13T16:02:03.056Z,16.80
2022-10-13T16:04:34.795Z,13.50
2022-10-13T16:07:04.280Z,13.65
2022-10-13T16:09:31.372Z,12.50
2022-10-13T16:11:58.376Z,14.82
2022-10-13T16:14:25.342Z,14.85
2022-10-13T16:16:52.335Z,15.35
2022-10-13T16:19:19.315Z,12.70
2022-10-13T16:21:46.296Z,15.00
2022-10-13T16:24:14.207Z,14.60
2022-10-13T16:26:41.175Z,13.35
2022-10-13T16:29:08.178Z,10.65
2022-10-13T16:31:35.404Z,11.15
2022-10-13T16:34:02.667Z,18.83
2022-10-13T16:36:29.609Z,11.00
2022-10-13T16:38:56.794Z,14.63
2022-10-13T16:41:24.116Z,17.83
2022-10-13T16:43:51.315Z,12.52
2022-10-13T16:46:20.078Z,12.55
2022-10-13T16:48:47.895Z,11.95
2022-10-13T16:51:20.839Z,15.52
2022-10-13T16:53:49.583Z,14.95
2022-10-13T16:56:16.748Z,15.38
2022-10-13T16:58:43.730Z,13.57
2022-10-13T17:01:11.943Z,13.90
2022-10-13T17:03:39.686Z,16.42
2022-10-13T17:06:07.032Z,13.60
2022-10-13T17:08:34.338Z,12.57
2022-10-13T17:11:03.767Z,19.38
2022-10-13T17:13:32.246Z,16.90
2022-10-13T17:15:59.646Z,17.38
2022-10-13T17:18:31.907Z,14.98
2022-10-13T17:32:46.705Z,13.93
2022-10-13T17:35:28.753Z,20.10
2022-10-13T17:37:57.084Z,13.23
2022-10-13T17:40:24.316Z,12.60
2022-10-13T17:42:51.421Z,15.68
2022-10-13T17:45:18.788Z,16.48
2022-10-13T17:47:49.872Z,22.10
2022-10-13T17:50:18.236Z,19.73
2022-10-13T17:52:45.349Z,18.83
2022-10-13T17:55:12.614Z,17.60
2022-10-13T17:57:39.736Z,16.67
2022-10-13T18:00:07.679Z,14.48
2022-10-13T18:02:40.570Z,18.73
2022-10-13T18:05:07.950Z,18.65
2022-10-13T18:07:35.022Z,23.85
2022-10-13T18:10:02.489Z,23.52
2022-10-13T18:12:29.492Z,18.63
2022-10-13T18:14:56.645Z,20.73
2022-10-13T18:17:24.101Z,21.13
2022-10-13T18:19:51.188Z,25.45
2022-10-13T18:22:18.317Z,23.27
2022-10-13T18:24:46.445Z,23.13
2022-10-13T18:27:13.526Z,19.77
2022-10-13T18:29:41.805Z,26.13
2022-10-13T18:32:09.045Z,20.45
2022-10-13T18:34:36.146Z,20.15
2022-10-13T18:37:03.206Z,28.15
2022-10-13T18:39:30.230Z,17.35
2022-10-13T18:41:57.623Z,21.50
2022-10-13T18:44:34.050Z,24.90
2022-10-13T18:47:01.110Z,24.67
2022-10-13T18:49:28.127Z,27.35
2022-10-13T18:51:55.209Z,20.85
2022-10-13T18:54:22.304Z,22.92
2022-10-13T18:56:49.349Z,22.38
2022-10-13T18:59:16.457Z,30.98
2022-10-13T19:01:43.551Z,26.77
2022-10-13T19:04:10.953Z,27.08
2022-10-13T19:06:39.387Z,22.52
2022-10-13T19:09:08.336Z,20.10
2022-10-13T19:11:36.957Z,21.63
2022-10-13T19:14:06.209Z,22.00
2022-10-13T19:16:37.141Z,19.67
2022-10-13T19:19:04.442Z,22.83
2022-10-13T19:21:31.486Z,23.52
2022-10-13T19:23:59.672Z,26.58
2022-10-13T19:26:29.768Z,20.17
2022-10-13T19:29:10.198Z,20.25
2022-10-13T19:31:38.490Z,21.90
2022-10-13T19:34:07.964Z,25.63
2022-10-13T19:36:40.940Z,26.55
2022-10-13T19:39:18.792Z,22.05
2022-10-13T19:41:46.988Z,19.13
2022-10-13T19:44:15.218Z,19.40
2022-10-13T19:46:43.457Z,20.25
2022-10-13T19:49:12.616Z,25.92
2022-10-13T19:51:45.492Z,23.45
2022-10-13T19:54:13.549Z,32.90
2022-10-13T19:56:46.250Z,32.03
2022-10-13T19:59:13.650Z,26.52
2022-10-13T20:01:40.762Z,25.38
2022-10-13T20:04:13.874Z,25.83
2022-10-13T20:06:44.235Z,28.97
2022-10-13T20:09:11.312Z,33.75
2022-10-13T20:11:38.404Z,28.02
2022-10-13T20:14:05.510Z,23.88
2022-10-13T20:16:32.732Z,24.38
2022-10-13T20:19:00.644Z,22.15
2022-10-13T20:21:28.513Z,20.30
2022-10-13T20:23:56.774Z,23.60
2022-10-13T20:26:24.887Z,26.55
2022-10-13T20:28:53.933Z,27.88
2022-10-13T20:31:22.357Z,30.10
2022-10-13T20:33:54.548Z,22.70
2022-10-13T20:36:24.394Z,27.67
2022-10-13T20:38:51.435Z,20.77
2022-10-13T20:41:26.178Z,36.35
2022-10-13T20:43:55.064Z,31.60
2022-10-13T20:46:22.892Z,25.95
2022-10-13T20:49:09.922Z,31.02
2022-10-13T20:51:37.985Z,28.08
2022-10-13T20:54:06.114Z,27.45
2022-10-13T20:56:34.737Z,30.30
2022-10-13T20:59:05.057Z,27.88
2022-10-13T21:01:32.650Z,27.05
2022-10-13T21:03:59.826Z,24.05
2022-10-13T21:06:27.281Z,24.88
2022-10-13T21:08:56.889Z,25.63
2022-10-13T21:11:24.469Z,29.50
2022-10-13T21:13:52.278Z,25.38
2022-10-13T21:16:25.304Z,26.98
2022-10-13T21:18:52.929Z,29.58
2022-10-13T21:21:22.572Z,29.27
2022-10-13T21:23:57.889Z,28.10
2022-10-13T21:26:26.997Z,27.85
2022-10-13T21:28:54.522Z,31.27
2022-10-13T21:31:23.024Z,27.38
2022-10-13T21:33:50.501Z,30.27
2022-10-13T21:36:28.097Z,25.55
2022-10-13T21:38:58.256Z,30.42
2022-10-13T21:41:25.600Z,39.88
2022-10-13T21:43:53.483Z,31.42
2022-10-13T21:46:24.042Z,40.08
2022-10-13T21:48:56.126Z,35.33
2022-10-13T21:51:31.464Z,37.25
2022-10-13T21:54:01.273Z,28.98
2022-10-13T21:56:32.563Z,30.00
2022-10-13T21:59:00.134Z,30.30
2022-10-13T22:01:27.670Z,31.98
2022-10-13T22:03:58.270Z,28.25
2022-10-13T22:06:29.997Z,25.58
2022-10-13T22:08:58.621Z,36.92
2022-10-13T22:11:28.131Z,26.67
2022-10-13T22:13:56.468Z,31.27
2022-10-13T22:16:27.357Z,34.45
2022-10-13T22:18:56.138Z,29.27
2022-10-13T22:21:27.224Z,31.30
2022-10-13T22:23:59.166Z,31.00
2022-10-13T22:26:29.473Z,32.80
2022-10-13T22:28:57.764Z,30.67
2022-10-13T22:31:25.594Z,30.65
2022-10-13T22:33:53.133Z,30.08
2022-10-13T22:36:22.405Z,28.50
2022-10-13T22:38:50.601Z,25.08
2022-10-13T22:41:19.145Z,30.20
2022-10-13T22:43:50.594Z,32.97
2022-10-13T22:46:19.791Z,27.38
2022-10-13T22:48:47.689Z,28.48
2022-10-13T22:51:17.946Z,29.45
2022-10-13T22:53:45.517Z,30.88
2022-10-13T22:56:18.111Z,31.10
2022-10-13T22:58:55.792Z,24.67
2022-10-13T23:01:24.609Z,35.13
2022-10-13T23:03:54.377Z,28.23
2022-10-13T23:06:25.805Z,36.75
2022-10-13T23:08:52.950Z,29.92
2022-10-13T23:11:20.564Z,35.00
2022-10-13T23:13:47.637Z,34.53
2022-10-13T23:16:18.704Z,23.65
2022-10-13T23:18:45.764Z,37.95
2022-10-13T23:21:38.798Z,40.92
2022-10-13T23:24:06.715Z,29.92
2022-10-13T23:26:34.589Z,27.90
2022-10-13T23:29:01.973Z,29.80
2022-10-13T23:31:29.357Z,29.05
2022-10-13T23:33:57.298Z,22.50
2022-10-13T23:36:26.545Z,25.80
2022-10-13T23:38:58.413Z,24.42
2022-10-13T23:41:26.339Z,26.20
2022-10-13T23:43:53.431Z,30.38
2022-10-13T23:46:20.489Z,28.52
2022-10-13T23:48:47.655Z,25.20
2022-10-13T23:51:18.177Z,24.60
2022-10-13T23:53:45.922Z,28.83
2022-10-13T23:56:15.709Z,29.58
2022-10-13T23:58:43.931Z,23.65
